Time;durP1;ratioP1;P1;durP2;ratioP2;P2;SDS_P1;SDS_P2;PMS_P1;PMS_P2;Temp;Humidity;BMP_temperature;BMP_pressure;BME280_temperature;BME280_humidity;BME280_pressure;Samples;Min_cycle;Max_cycle;Signal;HPM_P1;HPM_P2
2022/12/05 00:02:07;;;;;;;16.63;12.63;;;4.40;99.90;;;;;;4955087;28;20304;-86
2022/12/05 00:04:36;;;;;;;19.83;14.93;;;4.40;99.90;;;;;;4954714;28;20256;-87
2022/12/05 00:07:04;;;;;;;17.30;13.63;;;4.40;99.90;;;;;;4955295;28;20299;-94
2022/12/05 00:09:32;;;;;;;18.13;12.68;;;4.40;99.90;;;;;;4955741;28;20268;-94
2022/12/05 00:12:01;;;;;;;12.73;11.20;;;4.40;99.90;;;;;;4955275;28;20213;-94
2022/12/05 00:14:31;;;;;;;16.08;13.43;;;4.40;99.90;;;;;;4955298;28;20221;-94
2022/12/05 00:16:59;;;;;;;20.38;14.88;;;4.40;99.90;;;;;;4954881;28;20213;-95
2022/12/05 00:19:28;;;;;;;22.15;13.98;;;4.40;99.90;;;;;;4955273;28;20214;-94
2022/12/05 00:21:56;;;;;;;21.85;15.05;;;4.50;99.90;;;;;;4955017;28;20296;-93
2022/12/05 00:24:25;;;;;;;24.52;15.13;;;4.40;99.90;;;;;;4954927;28;20284;-93
2022/12/05 00:26:53;;;;;;;20.75;14.55;;;4.40;99.90;;;;;;4955117;28;20236;-94
2022/12/05 00:29:22;;;;;;;20.27;14.98;;;4.40;99.90;;;;;;4954849;28;20225;-94
2022/12/05 00:31:51;;;;;;;19.13;15.38;;;4.40;99.90;;;;;;4955117;28;20213;-93
2022/12/05 00:34:20;;;;;;;20.88;14.63;;;4.40;99.90;;;;;;4954729;28;20244;-94
2022/12/05 00:36:49;;;;;;;21.27;15.95;;;4.40;99.90;;;;;;4954756;28;20229;-93
2022/12/05 00:39:17;;;;;;;16.70;14.00;;;4.40;99.90;;;;;;4954916;28;20280;-94
2022/12/05 00:41:45;;;;;;;19.58;14.98;;;4.40;99.90;;;;;;4954797;28;20280;-94
2022/12/05 00:44:14;;;;;;;19.27;14.93;;;4.40;99.90;;;;;;4954819;28;20291;-93
2022/12/05 00:46:43;;;;;;;27.95;15.52;;;4.40;99.90;;;;;;4954748;28;20271;-94
2022/12/05 00:49:13;;;;;;;23.77;14.43;;;4.40;99.90;;;;;;4961932;28;20237;-93
2022/12/05 00:51:43;;;;;;;17.70;14.32;;;4.40;99.90;;;;;;4965505;28;20224;-93
2022/12/05 00:54:13;;;;;;;23.60;14.35;;;4.40;99.90;;;;;;4963892;28;20257;-94
2022/12/05 00:56:42;;;;;;;14.93;12.80;;;4.40;99.90;;;;;;4956310;28;20248;-94
2022/12/05 00:59:16;;;;;;;20.00;15.68;;;4.50;99.90;;;;;;4964037;28;20212;-94
2022/12/05 01:01:46;;;;;;;19.77;14.63;;;4.50;99.90;;;;;;4965611;29;20265;-94
2022/12/05 01:04:19;;;;;;;23.23;15.30;;;4.40;99.90;;;;;;4963733;28;20237;-94
2022/12/05 01:06:48;;;;;;;19.90;14.40;;;4.40;99.90;;;;;;4958196;29;20237;-93
2022/12/05 01:09:20;;;;;;;17.70;14.18;;;4.50;99.90;;;;;;4956220;29;20221;-94
2022/12/05 01:11:49;;;;;;;26.10;14.35;;;4.50;99.90;;;;;;4956535;28;20267;-95
2022/12/05 01:14:23;;;;;;;17.80;13.95;;;4.50;99.90;;;;;;4956377;28;20228;-94
2022/12/05 01:16:53;;;;;;;14.45;12.38;;;4.50;99.90;;;;;;4956134;29;20299;-94
2022/12/05 01:19:26;;;;;;;16.38;13.15;;;4.50;99.90;;;;;;4956624;29;20244;-95
2022/12/05 01:21:55;;;;;;;20.23;13.13;;;4.50;99.90;;;;;;4956352;29;20304;-93
2022/12/05 01:24:25;;;;;;;16.73;13.18;;;4.50;99.90;;;;;;4956160;28;20233;-94
2022/12/05 01:26:54;;;;;;;13.82;12.10;;;4.50;99.90;;;;;;4958738;29;20208;-94
2022/12/05 01:29:24;;;;;;;20.85;13.13;;;4.50;99.90;;;;;;4967906;29;20319;-93
2022/12/05 01:31:53;;;;;;;15.60;12.73;;;4.50;99.90;;;;;;4966971;29;20296;-93
2022/12/05 01:34:23;;;;;;;14.55;12.25;;;4.50;99.90;;;;;;4960388;28;20239;-94
2022/12/05 01:36:51;;;;;;;13.20;11.80;;;4.50;99.90;;;;;;4955846;29;20213;-94
2022/12/05 01:39:20;;;;;;;16.13;12.52;;;4.60;99.90;;;;;;4955659;29;20208;-94
2022/12/05 01:41:50;;;;;;;15.35;12.68;;;4.60;99.90;;;;;;4956220;29;20208;-94
2022/12/05 01:44:56;;;;;;;15.93;11.40;;;4.60;99.90;;;;;;4955586;28;20283;-86
2022/12/05 01:47:27;;;;;;;14.52;11.05;;;4.60;99.90;;;;;;4955102;29;20205;-86
2022/12/05 01:49:58;;;;;;;12.75;10.10;;;4.60;99.90;;;;;;4955219;29;20240;-86
2022/12/05 01:52:30;;;;;;;12.65;10.95;;;4.60;99.90;;;;;;4955242;29;20228;-86
2022/12/05 01:55:02;;;;;;;12.88;11.02;;;4.60;99.90;;;;;;4955144;29;20277;-87
2022/12/05 01:57:32;;;;;;;11.45;10.27;;;4.60;99.90;;;;;;4954068;28;20237;-85
2022/12/05 02:00:05;;;;;;;17.63;10.82;;;4.70;99.90;;;;;;4955901;29;20206;-94
2022/12/05 02:02:34;;;;;;;13.60;11.07;;;4.70;99.90;;;;;;4955561;28;20304;-93
2022/12/05 02:05:07;;;;;;;13.18;10.68;;;4.70;99.90;;;;;;4955404;29;20208;-95
2022/12/05 02:07:40;;;;;;;12.80;10.63;;;4.70;99.90;;;;;;4955390;29;20233;-93
2022/12/05 02:10:10;;;;;;;15.88;10.93;;;4.70;99.90;;;;;;4955186;28;20232;-94
2022/12/05 02:12:39;;;;;;;11.60;10.07;;;4.70;99.90;;;;;;4955421;28;20216;-93
2022/12/05 02:15:24;;;;;;;12.60;10.63;;;4.70;99.90;;;;;;4955187;29;20237;-93
2022/12/05 02:18:05;;;;;;;16.30;11.35;;;4.60;99.90;;;;;;4955065;29;20300;-93
2022/12/05 02:20:44;;;;;;;12.18;10.90;;;4.60;99.90;;;;;;4955607;29;20300;-94
2022/12/05 02:23:43;;;;;;;18.67;11.15;;;4.70;99.90;;;;;;4955580;28;20261;-93
2022/12/05 02:26:42;;;;;;;18.65;11.82;;;4.70;99.90;;;;;;4955374;28;20209;-94
2022/12/05 02:29:54;;;;;;;12.25;10.63;;;4.70;99.90;;;;;;4955361;28;20233;-94
2022/12/05 02:32:38;;;;;;;13.57;10.50;;;4.70;99.90;;;;;;4895824;29;20203;-86
2022/12/05 02:35:16;;;;;;;13.18;11.15;;;4.70;99.90;;;;;;4953255;28;20227;-86
2022/12/05 02:37:52;;;;;;;13.90;10.82;;;4.70;99.90;;;;;;4954933;29;20261;-86
2022/12/05 02:40:25;;;;;;;12.02;10.35;;;4.70;99.90;;;;;;4954611;29;20223;-86
2022/12/05 02:42:59;;;;;;;11.50;10.27;;;4.70;99.90;;;;;;4954447;28;20235;-86
2022/12/05 02:45:34;;;;;;;15.43;10.50;;;4.70;99.90;;;;;;4954395;29;20315;-86
2022/12/05 02:48:03;;;;;;;10.98;9.98;;;4.70;99.90;;;;;;4954453;29;20240;-86
2022/12/05 02:50:36;;;;;;;13.40;10.10;;;4.70;99.90;;;;;;4954586;29;20227;-86
2022/12/05 02:53:09;;;;;;;17.52;11.27;;;4.60;99.90;;;;;;4954690;28;20248;-86
2022/12/05 02:55:40;;;;;;;13.05;10.15;;;4.70;99.90;;;;;;4954345;29;20264;-86
2022/12/05 02:58:15;;;;;;;10.82;9.48;;;4.70;99.90;;;;;;4954464;29;20208;-86
2022/12/05 03:00:49;;;;;;;10.73;9.35;;;4.70;99.90;;;;;;4954441;29;20284;-86
2022/12/05 03:03:21;;;;;;;10.68;9.07;;;4.70;99.90;;;;;;4954694;28;20229;-86
2022/12/05 03:05:56;;;;;;;10.50;9.40;;;4.60;99.90;;;;;;4954724;29;20244;-86
2022/12/05 03:08:29;;;;;;;11.30;10.18;;;4.60;99.90;;;;;;4955872;28;20208;-86
2022/12/05 03:11:00;;;;;;;10.80;9.57;;;4.60;99.90;;;;;;4957901;29;20267;-86
2022/12/05 03:13:33;;;;;;;11.32;10.20;;;4.60;99.90;;;;;;4957572;28;20323;-86
2022/12/05 03:16:08;;;;;;;10.35;9.25;;;4.70;99.90;;;;;;4958010;29;20209;-86
2022/12/05 03:18:40;;;;;;;11.05;9.85;;;4.70;99.90;;;;;;4958288;29;20212;-86
2022/12/05 03:21:14;;;;;;;11.52;8.80;;;4.60;99.90;;;;;;4958052;29;20244;-86
2022/12/05 03:23:48;;;;;;;10.90;9.13;;;4.60;99.90;;;;;;4957930;28;20317;-86
2022/12/05 03:26:24;;;;;;;11.93;9.43;;;4.60;99.90;;;;;;4958338;28;20209;-86
2022/12/05 03:29:00;;;;;;;11.48;8.00;;;4.60;99.90;;;;;;4957560;29;20209;-85
2022/12/05 03:31:45;;;;;;;12.55;9.95;;;4.60;99.90;;;;;;4958139;29;20209;-86
2022/12/05 03:34:19;;;;;;;11.65;10.13;;;4.60;99.90;;;;;;4957324;28;20279;-87
2022/12/05 03:36:53;;;;;;;11.07;9.13;;;4.60;99.90;;;;;;4957135;29;20247;-86
2022/12/05 03:39:24;;;;;;;10.88;9.52;;;4.50;99.90;;;;;;4957177;29;20211;-87
2022/12/05 03:41:59;;;;;;;10.07;9.07;;;4.60;99.90;;;;;;4957648;29;20201;-86
2022/12/05 03:44:34;;;;;;;12.25;10.55;;;4.60;99.90;;;;;;4957576;28;20239;-86
2022/12/05 03:47:11;;;;;;;11.32;8.52;;;4.60;99.90;;;;;;4957150;29;20214;-86
2022/12/05 03:49:45;;;;;;;10.23;9.20;;;4.60;99.90;;;;;;4957100;29;20228;-86
2022/12/05 03:52:19;;;;;;;10.63;9.52;;;4.50;99.90;;;;;;4957546;29;20287;-86
2022/12/05 03:54:52;;;;;;;10.65;9.48;;;4.50;99.90;;;;;;4957522;28;20228;-86
2022/12/05 03:57:24;;;;;;;12.82;10.18;;;4.50;99.90;;;;;;4957398;29;20223;-86
2022/12/05 03:59:57;;;;;;;9.88;8.95;;;4.50;99.90;;;;;;4957222;29;20292;-86
2022/12/05 04:02:32;;;;;;;13.30;10.55;;;4.50;99.90;;;;;;4957385;29;20263;-86
2022/12/05 04:05:05;;;;;;;9.23;8.32;;;4.50;99.90;;;;;;4957320;29;20236;-85
2022/12/05 04:07:37;;;;;;;13.35;9.20;;;4.50;99.90;;;;;;4956907;29;20280;-86
2022/12/05 04:10:11;;;;;;;12.13;9.85;;;4.50;99.90;;;;;;4957241;29;20228;-94
2022/12/05 04:12:43;;;;;;;14.38;10.68;;;4.50;99.90;;;;;;4957248;28;20216;-94
2022/12/05 04:15:19;;;;;;;10.63;9.25;;;4.50;99.90;;;;;;4957271;29;20284;-94
2022/12/05 04:17:51;;;;;;;11.50;9.48;;;4.50;99.90;;;;;;4957278;29;20295;-93
2022/12/05 04:23:11;;;;;;;10.07;8.63;;;4.40;99.90;;;;;;4957079;28;20228;-93
2022/12/05 04:25:56;;;;;;;9.98;8.88;;;4.50;99.90;;;;;;4957393;29;20209;-94
2022/12/05 04:28:32;;;;;;;11.52;8.88;;;4.50;99.90;;;;;;4957330;28;20212;-94
2022/12/05 04:31:06;;;;;;;10.45;8.48;;;4.50;99.90;;;;;;4956752;28;20225;-95
2022/12/05 04:33:42;;;;;;;11.63;9.20;;;4.50;99.90;;;;;;4956880;28;20252;-95
2022/12/05 04:36:13;;;;;;;10.23;9.02;;;4.40;99.90;;;;;;4956980;29;20299;-96
2022/12/05 04:38:46;;;;;;;10.73;8.88;;;4.40;99.90;;;;;;4956922;29;20237;-94
2022/12/05 04:41:19;;;;;;;10.75;9.25;;;4.40;99.90;;;;;;4956727;28;20201;-96
2022/12/05 04:43:49;;;;;;;14.25;9.23;;;4.40;99.90;;;;;;4957017;28;20229;-94
2022/12/05 04:46:19;;;;;;;9.52;8.50;;;4.40;99.90;;;;;;4957017;29;20215;-93
2022/12/05 04:48:52;;;;;;;9.57;8.68;;;4.40;99.90;;;;;;4956579;29;20240;-94
2022/12/05 04:51:25;;;;;;;10.38;8.65;;;4.40;99.90;;;;;;4957013;29;20233;-94
2022/12/05 04:53:59;;;;;;;16.10;9.95;;;4.40;99.90;;;;;;4956717;28;20324;-93
2022/12/05 04:56:31;;;;;;;11.52;10.13;;;4.40;99.90;;;;;;4956874;28;20228;-94
2022/12/05 04:59:00;;;;;;;10.95;9.52;;;4.40;99.90;;;;;;4956662;29;20303;-94
2022/12/05 05:01:34;;;;;;;10.27;8.93;;;4.40;99.90;;;;;;4956885;29;20255;-93
2022/12/05 05:04:09;;;;;;;11.43;9.80;;;4.40;99.90;;;;;;4962008;28;20324;-93
2022/12/05 05:06:38;;;;;;;10.82;9.15;;;4.40;99.90;;;;;;4967320;29;20272;-93
2022/12/05 05:09:07;;;;;;;10.18;9.15;;;4.40;99.90;;;;;;4968040;29;20296;-93
2022/12/05 05:11:36;;;;;;;9.85;8.88;;;4.40;99.90;;;;;;4956713;29;20229;-94
2022/12/05 05:14:07;;;;;;;12.13;8.82;;;4.40;99.90;;;;;;4955665;28;20229;-94
2022/12/05 05:16:37;;;;;;;10.30;8.75;;;4.40;99.90;;;;;;4955777;29;20209;-86
2022/12/05 05:19:08;;;;;;;10.25;9.18;;;4.40;99.90;;;;;;4955974;28;20228;-85
2022/12/05 05:21:38;;;;;;;8.63;7.85;;;4.40;99.90;;;;;;4955589;29;20288;-86
2022/12/05 05:24:08;;;;;;;9.80;8.80;;;4.40;99.90;;;;;;4955772;28;20229;-93
2022/12/05 05:26:38;;;;;;;9.10;8.20;;;4.40;99.90;;;;;;4955752;29;20244;-94
2022/12/05 05:29:08;;;;;;;11.52;9.32;;;4.40;99.90;;;;;;4956399;29;20323;-94
2022/12/05 05:31:37;;;;;;;10.32;8.10;;;4.40;99.90;;;;;;4955065;28;20247;-93
2022/12/05 05:34:08;;;;;;;11.93;8.68;;;4.40;99.90;;;;;;4955610;28;20237;-93
2022/12/05 05:36:38;;;;;;;11.25;8.65;;;4.40;99.90;;;;;;4956234;28;20214;-92
2022/12/05 05:39:10;;;;;;;10.10;9.10;;;4.40;99.90;;;;;;4955710;29;20251;-94
2022/12/05 05:41:39;;;;;;;9.13;8.13;;;4.30;99.90;;;;;;4955729;28;20268;-94
2022/12/05 05:44:07;;;;;;;9.30;8.40;;;4.40;99.90;;;;;;4955568;28;20316;-93
2022/12/05 05:46:36;;;;;;;10.10;9.10;;;4.40;99.90;;;;;;4955594;28;20279;-93
2022/12/05 05:49:05;;;;;;;12.85;9.13;;;4.40;99.90;;;;;;4955548;29;20205;-95
2022/12/05 05:51:34;;;;;;;10.98;9.15;;;4.40;99.90;;;;;;4955386;28;20315;-95
2022/12/05 05:54:03;;;;;;;10.05;8.48;;;4.40;99.90;;;;;;4955356;28;20289;-95
2022/12/05 05:56:31;;;;;;;14.30;9.90;;;4.40;99.90;;;;;;4955686;29;20209;-93
2022/12/05 05:59:01;;;;;;;10.35;9.32;;;4.40;99.90;;;;;;4955210;29;20208;-92
2022/12/05 06:01:30;;;;;;;10.40;9.25;;;4.40;99.90;;;;;;4955848;29;20197;-93
2022/12/05 06:03:59;;;;;;;12.52;10.30;;;4.40;99.90;;;;;;4955212;28;20267;-93
2022/12/05 06:06:28;;;;;;;10.27;9.20;;;4.40;99.90;;;;;;4955654;29;20245;-93
2022/12/05 06:08:58;;;;;;;9.95;8.95;;;4.50;99.90;;;;;;4955466;29;20292;-93
2022/12/05 06:11:28;;;;;;;10.55;9.50;;;4.50;99.90;;;;;;4955576;29;20244;-94
2022/12/05 06:13:59;;;;;;;10.65;9.55;;;4.50;99.90;;;;;;4955421;28;20321;-93
2022/12/05 06:16:29;;;;;;;10.80;9.00;;;4.50;99.90;;;;;;4955290;29;20300;-94
2022/12/05 06:18:58;;;;;;;11.45;9.45;;;4.40;99.90;;;;;;4955019;29;20219;-94
2022/12/05 06:21:26;;;;;;;10.25;9.25;;;4.50;99.90;;;;;;4955694;29;20201;-94
2022/12/05 06:23:55;;;;;;;9.85;8.18;;;4.40;99.90;;;;;;4955535;28;20319;-94
2022/12/05 06:26:25;;;;;;;10.73;9.70;;;4.50;99.90;;;;;;4955801;29;20251;-94
2022/12/05 06:28:54;;;;;;;9.55;8.35;;;4.50;99.90;;;;;;4955550;28;20213;-94
2022/12/05 06:31:25;;;;;;;9.40;8.43;;;4.50;99.90;;;;;;4955200;29;20328;-94
2022/12/05 06:33:54;;;;;;;10.00;9.00;;;4.50;99.90;;;;;;4955229;28;20256;-94
2022/12/05 06:36:22;;;;;;;12.18;9.73;;;4.50;99.90;;;;;;4955466;28;20213;-94
2022/12/05 06:38:51;;;;;;;10.43;9.10;;;4.50;99.90;;;;;;4955239;29;20299;-94
2022/12/05 06:41:23;;;;;;;10.95;9.45;;;4.40;99.90;;;;;;4956458;29;20227;-94
2022/12/05 06:43:54;;;;;;;10.40;9.32;;;4.50;99.90;;;;;;4958786;28;20235;-95
2022/12/05 06:46:29;;;;;;;10.10;9.10;;;4.50;99.90;;;;;;4959597;29;20208;-94
2022/12/05 06:48:59;;;;;;;11.75;10.00;;;4.40;99.90;;;;;;4959057;29;20216;-94
2022/12/05 06:51:27;;;;;;;10.63;9.05;;;4.40;99.90;;;;;;4958933;29;20312;-94
2022/12/05 06:53:56;;;;;;;11.68;10.15;;;4.40;99.90;;;;;;4959190;28;20253;-94
2022/12/05 06:56:24;;;;;;;9.82;8.48;;;4.50;99.90;;;;;;4959296;29;20221;-94
2022/12/05 06:58:55;;;;;;;11.77;10.57;;;4.50;99.90;;;;;;4960485;29;20212;-94
2022/12/05 07:01:39;;;;;;;13.32;10.85;;;4.50;99.90;;;;;;4962367;29;20209;-93
2022/12/05 07:04:12;;;;;;;13.52;10.40;;;4.50;99.90;;;;;;4961156;28;20225;-93
2022/12/05 07:06:41;;;;;;;11.75;10.18;;;4.50;99.90;;;;;;4960744;29;20232;-94
2022/12/05 07:09:16;;;;;;;12.32;9.95;;;4.50;99.90;;;;;;4958988;29;20208;-94
2022/12/05 07:11:47;;;;;;;13.77;11.00;;;4.50;99.90;;;;;;4958424;28;20225;-94
2022/12/05 07:14:17;;;;;;;12.25;10.52;;;4.50;99.90;;;;;;4958093;28;20225;-94
2022/12/05 07:17:05;;;;;;;13.48;11.07;;;4.50;99.90;;;;;;4958397;29;20209;-94
2022/12/05 07:19:34;;;;;;;10.73;9.60;;;4.50;99.90;;;;;;4958366;29;20259;-94
2022/12/05 07:22:02;;;;;;;12.88;10.73;;;4.60;99.90;;;;;;4958105;29;20261;-94
2022/12/05 07:24:31;;;;;;;16.75;12.50;;;4.60;99.90;;;;;;4958170;28;20292;-94
2022/12/05 07:26:59;;;;;;;14.35;11.07;;;4.60;99.90;;;;;;4957884;29;20238;-94
2022/12/05 07:29:29;;;;;;;13.45;11.45;;;4.60;99.90;;;;;;4958537;29;20300;-94
2022/12/05 07:31:58;;;;;;;13.98;10.93;;;4.60;99.90;;;;;;4957914;29;20221;-94
2022/12/05 07:34:27;;;;;;;13.23;10.93;;;4.60;99.90;;;;;;4958426;28;20229;-94
2022/12/05 07:36:55;;;;;;;13.65;11.30;;;4.60;99.90;;;;;;4957956;29;20296;-94
2022/12/05 07:39:23;;;;;;;14.38;11.93;;;4.70;99.90;;;;;;4957943;29;20256;-94
2022/12/05 07:41:52;;;;;;;14.93;11.20;;;4.70;99.90;;;;;;4957538;29;20233;-94
2022/12/05 07:44:20;;;;;;;11.45;10.23;;;4.60;99.90;;;;;;4958415;28;20233;-94
2022/12/05 07:46:50;;;;;;;16.38;12.15;;;4.60;99.90;;;;;;4958134;29;20237;-93
2022/12/05 07:49:19;;;;;;;19.67;11.70;;;4.60;99.90;;;;;;4958135;29;20304;-94
2022/12/05 07:51:48;;;;;;;15.88;11.65;;;4.60;99.90;;;;;;4957827;29;20233;-93
2022/12/05 07:54:16;;;;;;;17.25;12.43;;;4.60;99.90;;;;;;4960878;28;20259;-93
2022/12/05 07:56:44;;;;;;;13.25;11.65;;;4.60;99.90;;;;;;4970160;29;20221;-93
2022/12/05 07:59:15;;;;;;;18.42;12.75;;;4.60;99.90;;;;;;4969280;28;20214;-93
2022/12/05 08:01:43;;;;;;;15.70;11.93;;;4.70;99.90;;;;;;4968588;29;20209;-94
2022/12/05 08:04:13;;;;;;;11.88;10.27;;;4.70;99.90;;;;;;4963512;28;20259;-94
2022/12/05 08:06:43;;;;;;;13.07;11.13;;;4.70;99.90;;;;;;4958067;29;20215;-94
2022/12/05 08:09:11;;;;;;;14.00;12.18;;;4.70;99.90;;;;;;4958221;28;20245;-94
2022/12/05 08:11:40;;;;;;;15.25;11.70;;;4.70;99.90;;;;;;4957879;29;20239;-93
2022/12/05 08:14:09;;;;;;;14.38;11.77;;;4.70;99.90;;;;;;4957329;28;20220;-95
2022/12/05 08:16:37;;;;;;;15.45;13.20;;;4.70;99.90;;;;;;4957797;29;20299;-94
2022/12/05 08:19:08;;;;;;;17.23;12.63;;;4.70;99.90;;;;;;4957903;29;20205;-94
2022/12/05 08:21:37;;;;;;;23.67;13.02;;;4.80;99.90;;;;;;4957839;29;20260;-93
2022/12/05 08:24:07;;;;;;;17.45;13.23;;;4.70;99.90;;;;;;4958867;28;20229;-94
2022/12/05 08:26:37;;;;;;;16.98;10.88;;;4.70;99.90;;;;;;4962673;29;20216;-94
2022/12/05 08:29:08;;;;;;;16.23;12.30;;;4.70;99.90;;;;;;4959401;29;20212;-94
2022/12/05 08:31:40;;;;;;;13.60;12.05;;;4.70;99.90;;;;;;4958143;29;20213;-94
2022/12/05 08:34:08;;;;;;;15.60;12.80;;;4.70;99.90;;;;;;4957656;28;20324;-94
2022/12/05 08:36:38;;;;;;;23.40;13.25;;;4.70;99.90;;;;;;4957603;29;20209;-93
2022/12/05 08:39:08;;;;;;;13.68;12.15;;;4.80;99.90;;;;;;4957400;29;20209;-94
2022/12/05 08:41:37;;;;;;;14.48;12.45;;;4.80;99.90;;;;;;4957298;29;20220;-94
2022/12/05 08:44:07;;;;;;;20.23;12.80;;;4.80;99.90;;;;;;4956783;28;20276;-94
2022/12/05 08:46:37;;;;;;;20.85;13.38;;;4.80;99.90;;;;;;4957021;29;20303;-94
2022/12/05 08:49:06;;;;;;;15.15;11.82;;;4.80;99.90;;;;;;4956506;29;20216;-94
2022/12/05 08:51:35;;;;;;;15.52;12.88;;;4.80;99.90;;;;;;4956362;29;20220;-94
2022/12/05 08:54:05;;;;;;;18.65;13.35;;;4.80;99.90;;;;;;4956264;28;20225;-94
2022/12/05 08:56:33;;;;;;;32.08;12.35;;;4.90;99.90;;;;;;4956723;29;20213;-94
2022/12/05 08:59:02;;;;;;;14.60;12.00;;;4.90;99.90;;;;;;4956785;28;20209;-94
2022/12/05 09:01:37;;;;;;;19.35;14.02;;;4.90;99.90;;;;;;4957145;29;20305;-94
2022/12/05 09:04:07;;;;;;;28.13;14.10;;;4.90;99.90;;;;;;4956783;28;20268;-94
2022/12/05 09:06:37;;;;;;;15.10;13.45;;;5.00;99.90;;;;;;4956950;28;20205;-95
2022/12/05 09:09:10;;;;;;;17.77;14.63;;;5.00;99.90;;;;;;4957285;29;20205;-95
2022/12/05 09:11:44;;;;;;;17.35;13.77;;;4.90;99.90;;;;;;4956841;29;20205;-93
2022/12/05 09:14:13;;;;;;;15.27;12.88;;;5.00;99.90;;;;;;4956040;28;20224;-93
2022/12/05 09:16:45;;;;;;;14.40;12.40;;;5.00;99.90;;;;;;4956318;29;20263;-94
2022/12/05 09:19:15;;;;;;;13.90;12.50;;;5.00;99.90;;;;;;4956818;29;20224;-93
2022/12/05 09:21:45;;;;;;;19.20;14.35;;;5.10;99.90;;;;;;4956713;29;20303;-93
2022/12/05 09:24:14;;;;;;;16.77;12.75;;;5.00;99.90;;;;;;4956265;28;20249;-93
2022/12/05 09:26:43;;;;;;;14.18;12.35;;;5.10;99.90;;;;;;4956607;29;20229;-94
2022/12/05 09:29:13;;;;;;;19.98;13.68;;;5.10;99.90;;;;;;4956680;29;20240;-94
2022/12/05 09:31:45;;;;;;;17.05;13.40;;;5.10;99.90;;;;;;4956651;29;20217;-94
2022/12/05 09:34:14;;;;;;;15.77;13.02;;;5.10;99.90;;;;;;4955915;28;20233;-94
2022/12/05 09:36:43;;;;;;;18.05;13.43;;;5.00;99.90;;;;;;4956454;29;20264;-95
2022/12/05 09:39:12;;;;;;;15.38;12.07;;;5.10;99.90;;;;;;4956265;29;20205;-94
2022/12/05 09:42:17;;;;;;;15.93;12.40;;;5.10;99.90;;;;;;4956318;29;20239;-94
2022/12/05 09:44:57;;;;;;;13.65;11.95;;;5.10;99.90;;;;;;4955925;28;20232;-94
2022/12/05 09:47:44;;;;;;;13.63;11.65;;;5.10;99.90;;;;;;4955885;29;20303;-94
2022/12/05 09:50:18;;;;;;;16.58;12.35;;;5.10;99.90;;;;;;4945699;28;20213;-93
2022/12/05 09:52:58;;;;;;;17.23;13.05;;;5.10;99.90;;;;;;4954958;28;20228;-93
2022/12/05 09:55:35;;;;;;;16.10;12.40;;;5.00;99.90;;;;;;4955431;29;20268;-85
2022/12/05 09:58:12;;;;;;;14.60;12.70;;;5.10;99.90;;;;;;4954984;29;20216;-85
2022/12/05 10:00:41;;;;;;;11.63;10.32;;;5.10;99.90;;;;;;4955757;29;20193;-93
2022/12/05 10:03:21;;;;;;;15.07;11.63;;;5.00;99.90;;;;;;4955545;28;20288;-93
2022/12/05 10:06:01;;;;;;;13.85;12.00;;;5.10;99.90;;;;;;4956571;29;20254;-94
2022/12/05 10:08:34;;;;;;;15.82;12.85;;;5.00;99.90;;;;;;4955968;29;20244;-94
2022/12/05 10:11:09;;;;;;;19.00;13.85;;;5.00;99.90;;;;;;4955841;29;20208;-93
2022/12/05 10:13:49;;;;;;;16.73;11.15;;;5.00;99.90;;;;;;4955242;28;20263;-94
2022/12/05 10:16:23;;;;;;;17.45;13.45;;;5.00;99.90;;;;;;4954952;29;20212;-93
2022/12/05 10:18:58;;;;;;;17.33;13.18;;;5.00;99.90;;;;;;4955315;28;20208;-94
2022/12/05 10:21:32;;;;;;;15.70;12.80;;;5.00;99.90;;;;;;4955851;29;20212;-93
2022/12/05 10:24:04;;;;;;;22.27;13.15;;;5.00;99.90;;;;;;4954228;28;20229;-94
2022/12/05 10:26:36;;;;;;;14.30;11.63;;;4.90;99.90;;;;;;4953131;28;20217;-93
2022/12/05 10:29:18;;;;;;;18.45;11.38;;;4.90;99.90;;;;;;4953503;28;20209;-94
2022/12/05 10:31:48;;;;;;;14.45;12.13;;;4.90;99.90;;;;;;4954899;29;20228;-93
2022/12/05 10:34:23;;;;;;;15.32;11.77;;;4.90;99.90;;;;;;4955419;28;20297;-93
2022/12/05 10:36:56;;;;;;;21.15;12.43;;;4.90;99.90;;;;;;4954949;29;20236;-93
2022/12/05 10:39:25;;;;;;;15.45;11.75;;;4.90;99.90;;;;;;4955546;29;20204;-93
2022/12/05 10:41:54;;;;;;;15.52;12.80;;;5.00;99.90;;;;;;4955714;29;20299;-94
2022/12/05 10:44:24;;;;;;;14.23;11.60;;;5.00;99.90;;;;;;4955557;28;20245;-94
2022/12/05 10:46:53;;;;;;;15.90;12.05;;;5.00;99.90;;;;;;4955261;29;20299;-93
2022/12/05 10:49:23;;;;;;;13.43;11.48;;;4.90;99.90;;;;;;4955464;29;20209;-93
2022/12/05 10:51:51;;;;;;;13.70;11.07;;;5.00;99.90;;;;;;4955044;29;20213;-94
2022/12/05 10:54:23;;;;;;;24.58;13.27;;;5.00;99.90;;;;;;4954938;28;20279;-93
2022/12/05 10:56:53;;;;;;;11.77;10.55;;;5.00;99.90;;;;;;4955136;29;20228;-94
2022/12/05 10:59:23;;;;;;;12.95;11.18;;;5.00;99.90;;;;;;4955358;29;20244;-94
2022/12/05 11:01:56;;;;;;;14.27;11.98;;;5.00;99.90;;;;;;4954721;28;20201;-86
2022/12/05 11:04:29;;;;;;;15.70;12.63;;;5.00;99.90;;;;;;4954381;28;20312;-86
2022/12/05 11:06:59;;;;;;;14.52;11.50;;;5.00;99.90;;;;;;4954350;29;20213;-85
2022/12/05 11:09:30;;;;;;;13.57;11.70;;;5.00;99.90;;;;;;4954425;29;20221;-86
2022/12/05 11:12:15;;;;;;;19.38;12.90;;;5.00;99.90;;;;;;4953934;29;20255;-85
2022/12/05 11:14:55;;;;;;;19.52;12.75;;;5.10;99.90;;;;;;4954560;28;20236;-86
2022/12/05 11:17:29;;;;;;;13.30;11.68;;;5.10;99.90;;;;;;4954351;29;20285;-86
2022/12/05 11:19:58;;;;;;;14.93;11.82;;;5.10;99.90;;;;;;4954449;29;20296;-86
2022/12/05 11:22:35;;;;;;;17.75;12.57;;;5.10;99.90;;;;;;4954490;29;20305;-86
2022/12/05 11:25:25;;;;;;;14.38;11.50;;;5.10;99.90;;;;;;4954282;29;20201;-86
2022/12/05 11:27:54;;;;;;;13.10;10.68;;;5.10;99.90;;;;;;4954454;29;20269;-86
2022/12/05 11:30:29;;;;;;;17.35;12.82;;;5.20;99.90;;;;;;4955897;28;20209;-86
2022/12/05 11:33:19;;;;;;;15.07;11.85;;;5.20;99.90;;;;;;4957440;28;20240;-86
2022/12/05 11:35:49;;;;;;;18.85;13.27;;;5.20;99.90;;;;;;4957832;29;20206;-86
2022/12/05 11:38:19;;;;;;;18.77;13.60;;;5.20;99.90;;;;;;4957374;29;20294;-86
2022/12/05 11:40:54;;;;;;;16.83;13.40;;;5.20;99.90;;;;;;4957667;29;20219;-86
2022/12/05 11:43:46;;;;;;;13.70;10.60;;;5.20;99.90;;;;;;4957180;28;20311;-86
2022/12/05 11:46:26;;;;;;;17.13;12.88;;;5.20;99.90;;;;;;4957465;29;20213;-86
2022/12/05 11:49:12;;;;;;;13.93;11.88;;;5.30;99.90;;;;;;4956924;29;20209;-86
2022/12/05 11:51:47;;;;;;;14.55;12.50;;;5.30;99.90;;;;;;4957287;29;20208;-86
2022/12/05 11:54:41;;;;;;;17.42;13.57;;;5.30;99.90;;;;;;4957543;28;20315;-86
2022/12/05 11:57:56;;;;;;;12.32;11.02;;;5.30;99.90;;;;;;4956743;29;20205;-85
2022/12/05 12:00:29;;;;;;;14.82;11.68;;;5.30;99.90;;;;;;4957433;29;20296;-85
2022/12/05 12:03:28;;;;;;;13.30;11.45;;;5.30;99.90;;;;;;4957452;28;20233;-86
2022/12/05 12:06:19;;;;;;;15.25;12.77;;;5.30;99.90;;;;;;4957681;29;20216;-86
2022/12/05 12:08:58;;;;;;;23.45;12.05;;;5.30;99.90;;;;;;4957507;29;20208;-92
2022/12/05 12:11:35;;;;;;;15.10;12.98;;;5.30;99.90;;;;;;4957689;29;20209;-94
2022/12/05 12:14:14;;;;;;;15.13;12.05;;;5.30;99.90;;;;;;4956724;28;20264;-93
2022/12/05 12:16:53;;;;;;;14.77;11.45;;;5.30;99.90;;;;;;4957549;29;20304;-93
2022/12/05 12:19:58;;;;;;;13.55;11.57;;;5.20;99.90;;;;;;4957482;29;20219;-94
2022/12/05 12:22:47;;;;;;;27.10;13.98;;;5.20;99.90;;;;;;4957290;28;20216;-93
2022/12/05 12:25:24;;;;;;;16.10;12.63;;;5.20;99.90;;;;;;4957064;29;20209;-93
2022/12/05 12:28:05;;;;;;;14.43;12.05;;;5.20;99.90;;;;;;4957045;29;20231;-93
2022/12/05 12:30:50;;;;;;;17.00;13.70;;;5.20;99.90;;;;;;4956647;29;20303;-86
2022/12/05 12:33:30;;;;;;;18.00;13.80;;;5.10;99.90;;;;;;4957004;28;20264;-92
2022/12/05 12:36:07;;;;;;;15.40;13.07;;;5.10;99.90;;;;;;4956898;29;20288;-93
2022/12/05 12:38:59;;;;;;;18.10;13.45;;;5.10;99.90;;;;;;4956930;29;20292;-93
2022/12/05 12:41:52;;;;;;;14.80;13.32;;;5.10;99.90;;;;;;4956110;28;20295;-94
2022/12/05 12:44:53;;;;;;;17.92;13.40;;;5.10;99.90;;;;;;4957288;28;20225;-93
2022/12/05 12:47:36;;;;;;;19.90;14.35;;;5.20;99.90;;;;;;4956570;28;20222;-93
2022/12/05 12:50:13;;;;;;;22.60;12.77;;;5.10;99.90;;;;;;4956757;29;20291;-93
2022/12/05 12:53:00;;;;;;;17.67;13.02;;;5.20;99.90;;;;;;4956852;28;20276;-93
2022/12/05 12:55:36;;;;;;;35.20;16.15;;;5.20;99.90;;;;;;4956758;29;20229;-93
2022/12/05 12:58:17;;;;;;;20.27;16.60;;;5.20;99.90;;;;;;4957076;29;20252;-93
2022/12/05 13:00:58;;;;;;;23.58;17.10;;;5.20;99.90;;;;;;4961255;29;20300;-93
2022/12/05 13:03:35;;;;;;;25.33;16.33;;;5.10;99.90;;;;;;4958808;28;20237;-93
2022/12/05 13:06:08;;;;;;;25.13;17.85;;;5.20;99.90;;;;;;4964073;29;20208;-93
2022/12/05 13:08:44;;;;;;;15.35;13.45;;;5.20;99.90;;;;;;4964722;29;20228;-94
2022/12/05 13:11:15;;;;;;;22.70;16.05;;;5.20;99.90;;;;;;4966699;29;20207;-93
2022/12/05 13:13:48;;;;;;;18.27;14.13;;;5.20;99.90;;;;;;4960625;28;20237;-93
2022/12/05 13:16:25;;;;;;;23.85;16.17;;;5.20;99.90;;;;;;4956605;29;20221;-93